PWSweather.com
Personal Weather Stations
Station Observations
IMAZOWIE6
WarszawaPL

WarszawaPL

Lat: 52.27957, Lon: 21.05489

Elevation: 100

Station Type: WS1080

http://stacjapogody.waw.pl/

High Low Average
Temperature 54.3°F12.4°F 37.6°F3.1°F 47.2°F8.4°F
Dew Point -167.4°F-110.8°F -169.0°F-111.7°F -168.1°F-111.2°F
Winds 4.8 mph 7.7 mph Calm Calm 0.8 mph 1.3 mph
Wind Gusts 10.2 mph16.4 mph -- 2.8 mph4.5 mph
Humidity 0% 0% 0%
Pressure 29.45 in997.30 in 29.31 in992.60 in -
Precipitation 0.12 in3.00 in - -
Hour Temp Dew Point Humidity Winds Wind Gusts Pressure Precip Precip Rate Daily Precip Total
12:06 AM 50.5°F10.3°C -167.7°F-110.9°C - 2.8 mph N4.5 kmh N 5.4 mph8.7 kmh 29.40 in995.6 mb 0.00 in0.0 mm 0.00 in0.0 mm 0.00 in0.0 mm
12:21 AM 50.5°F10.3°C -167.7°F-110.9°C - 2.0 mph N3.2 kmh N 4.0 mph6.4 kmh 29.40 in995.6 mb 0.00 in0.0 mm 0.00 in0.0 mm 0.00 in0.0 mm
12:36 AM 50.5°F10.3°C -167.7°F-110.9°C - 4.0 mph N6.4 kmh N 7.4 mph11.9 kmh 29.38 in994.9 mb 0.00 in0.0 mm 0.00 in0.0 mm 0.00 in0.0 mm
12:51 AM 50.4°F10.2°C -167.8°F-111.0°C - 3.4 mph N5.5 kmh N 7.4 mph11.9 kmh 29.38 in994.9 mb 0.00 in0.0 mm 0.00 in0.0 mm 0.00 in0.0 mm
01:06 AM 50.5°F10.3°C -167.7°F-110.9°C - 3.4 mph N5.5 kmh N 6.2 mph10.0 kmh 29.37 in994.6 mb 0.00 in0.0 mm 0.00 in0.0 mm 0.00 in0.0 mm
01:21 AM 49.8°F9.9°C -167.8°F-111.0°C - 4.0 mph N6.4 kmh N 8.2 mph13.2 kmh 29.36 in994.2 mb 0.00 in0.0 mm 0.00 in0.0 mm 0.00 in0.0 mm
01:36 AM 49.5°F9.7°C -167.9°F-111.1°C - 2.8 mph N4.5 kmh N 6.8 mph10.9 kmh 29.35 in993.9 mb 0.00 in0.0 mm 0.00 in0.0 mm 0.00 in0.0 mm
01:51 AM 49.1°F9.5°C -167.9°F-111.1°C - 2.8 mph N4.5 kmh N 4.8 mph7.7 kmh 29.35 in993.9 mb 0.00 in0.0 mm 0.00 in0.0 mm 0.00 in0.0 mm
02:06 AM 49.1°F9.5°C -167.9°F-111.1°C - 1.4 mph N2.3 kmh N 4.8 mph7.7 kmh 29.34 in993.6 mb 0.00 in0.0 mm 0.00 in0.0 mm 0.00 in0.0 mm
02:21 AM 48.9°F9.4°C -167.9°F-111.1°C - Calm Calm 3.4 mph5.5 kmh 29.34 in993.6 mb 0.01 in0.3 mm 0.05 in1.3 mm 0.01 in0.3 mm
02:36 AM 48.6°F9.2°C -167.9°F-111.1°C - 2.8 mph N4.5 kmh N 8.8 mph14.2 kmh 29.33 in993.2 mb 0.01 in0.3 mm 0.00 in0.0 mm 0.01 in0.3 mm
02:51 AM 48.6°F9.2°C -167.9°F-111.1°C - 1.4 mph N2.3 kmh N 6.2 mph10.0 kmh 29.33 in993.2 mb 0.01 in0.3 mm 0.00 in0.0 mm 0.01 in0.3 mm
03:06 AM 48.4°F9.1°C -168.0°F-111.1°C - 1.4 mph N2.3 kmh N 4.8 mph7.7 kmh 29.32 in992.9 mb 0.01 in0.3 mm 0.00 in0.0 mm 0.01 in0.3 mm
03:21 AM 48.2°F9.0°C -168.0°F-111.1°C - 0.6 mph N1.0 kmh N 6.2 mph10.0 kmh 29.31 in992.6 mb 0.00 in0.0 mm 0.00 in0.0 mm 0.01 in0.3 mm
03:36 AM 48.2°F9.0°C -168.0°F-111.1°C - 2.0 mph N3.2 kmh N 5.4 mph8.7 kmh 29.31 in992.6 mb 0.00 in0.0 mm 0.00 in0.0 mm 0.01 in0.3 mm
03:51 AM 48.2°F9.0°C -168.0°F-111.1°C - 2.0 mph N3.2 kmh N 6.2 mph10.0 kmh 29.31 in992.6 mb 0.01 in0.3 mm 0.05 in1.3 mm 0.02 in0.5 mm
04:06 AM 46.2°F7.9°C -168.2°F-111.2°C - Calm Calm 2.0 mph3.2 kmh 29.33 in993.2 mb 0.04 in1.0 mm 0.03 in0.8 mm 0.05 in1.3 mm
04:21 AM 45.3°F7.4°C -168.3°F-111.3°C - Calm Calm 2.0 mph3.2 kmh 29.34 in993.6 mb 0.00 in0.0 mm 0.00 in0.0 mm 0.05 in1.3 mm
04:36 AM 45.0°F7.2°C -168.3°F-111.3°C - 0.6 mph N1.0 kmh N 2.0 mph3.2 kmh 29.36 in994.2 mb 0.00 in0.0 mm 0.00 in0.0 mm 0.05 in1.3 mm
04:51 AM 44.6°F7.0°C -168.3°F-111.3°C - Calm Calm 0.6 mph1.0 kmh 29.36 in994.2 mb 0.00 in0.0 mm 0.00 in0.0 mm 0.05 in1.3 mm
05:06 AM 46.6°F8.1°C -168.1°F-111.2°C - Calm Calm 0.6 mph1.0 kmh 29.37 in994.6 mb 0.00 in0.0 mm 0.00 in0.0 mm 0.05 in1.3 mm
05:21 AM 49.1°F9.5°C -167.9°F-111.1°C - 0.6 mph N1.0 kmh N 2.0 mph3.2 kmh 29.37 in994.6 mb 0.00 in0.0 mm 0.00 in0.0 mm 0.05 in1.3 mm
05:36 AM 50.2°F10.1°C -167.8°F-111.0°C - 0.6 mph N1.0 kmh N 1.4 mph2.3 kmh 29.38 in994.9 mb 0.00 in0.0 mm 0.00 in0.0 mm 0.05 in1.3 mm
05:51 AM 49.3°F9.6°C -167.9°F-111.1°C - 1.4 mph N2.3 kmh N 3.4 mph5.5 kmh 29.38 in994.9 mb 0.00 in0.0 mm 0.00 in0.0 mm 0.05 in1.3 mm
06:06 AM 47.3°F8.5°C -168.1°F-111.2°C - 1.4 mph N2.3 kmh N 3.4 mph5.5 kmh 29.38 in994.9 mb 0.00 in0.0 mm 0.00 in0.0 mm 0.05 in1.3 mm
06:21 AM 50.4°F10.2°C -167.8°F-111.0°C - 1.4 mph N2.3 kmh N 3.4 mph5.5 kmh 29.38 in994.9 mb 0.00 in0.0 mm 0.00 in0.0 mm 0.05 in1.3 mm
06:36 AM 50.0°F10.0°C -167.8°F-111.0°C - 1.4 mph N2.3 kmh N 5.4 mph8.7 kmh 29.39 in995.3 mb 0.00 in0.0 mm 0.00 in0.0 mm 0.05 in1.3 mm
06:51 AM 52.0°F11.1°C -167.6°F-110.9°C - 0.6 mph N1.0 kmh N 2.8 mph4.5 kmh 29.40 in995.6 mb 0.00 in0.0 mm 0.00 in0.0 mm 0.05 in1.3 mm
07:06 AM 53.8°F12.1°C -167.4°F-110.8°C - Calm Calm 2.8 mph4.5 kmh 29.40 in995.6 mb 0.00 in0.0 mm 0.00 in0.0 mm 0.05 in1.3 mm
07:21 AM 54.3°F12.4°C -167.4°F-110.8°C - Calm Calm 1.4 mph2.3 kmh 29.41 in995.9 mb 0.00 in0.0 mm 0.00 in0.0 mm 0.05 in1.3 mm
07:36 AM 50.7°F10.4°C -167.7°F-110.9°C - Calm Calm 1.4 mph2.3 kmh 29.41 in995.9 mb 0.00 in0.0 mm 0.00 in0.0 mm 0.05 in1.3 mm
07:51 AM 50.2°F10.1°C -167.8°F-111.0°C - Calm Calm 2.0 mph3.2 kmh 29.42 in996.3 mb 0.00 in0.0 mm 0.00 in0.0 mm 0.05 in1.3 mm
08:06 AM 50.0°F10.0°C -167.8°F-111.0°C - 0.6 mph N1.0 kmh N 2.8 mph4.5 kmh 29.42 in996.3 mb 0.00 in0.0 mm 0.00 in0.0 mm 0.05 in1.3 mm
08:21 AM 54.3°F12.4°C -167.4°F-110.8°C - Calm Calm 2.0 mph3.2 kmh 29.42 in996.3 mb 0.00 in0.0 mm 0.00 in0.0 mm 0.05 in1.3 mm
08:36 AM 53.2°F11.8°C -167.5°F-110.8°C - Calm Calm 2.0 mph3.2 kmh 29.43 in996.6 mb 0.00 in0.0 mm 0.00 in0.0 mm 0.05 in1.3 mm
08:51 AM 54.0°F12.2°C -167.4°F-110.8°C - 1.4 mph N2.3 kmh N 4.0 mph6.4 kmh 29.43 in996.6 mb 0.00 in0.0 mm 0.00 in0.0 mm 0.05 in1.3 mm
09:06 AM 54.3°F12.4°C -167.4°F-110.8°C - Calm Calm 1.4 mph2.3 kmh 29.44 in997.0 mb 0.00 in0.0 mm 0.00 in0.0 mm 0.05 in1.3 mm
09:21 AM 52.2°F11.2°C -167.6°F-110.9°C - Calm Calm 1.4 mph2.3 kmh 29.44 in997.0 mb 0.00 in0.0 mm 0.00 in0.0 mm 0.05 in1.3 mm
09:36 AM 52.9°F11.6°C -167.5°F-110.8°C - Calm Calm 2.8 mph4.5 kmh 29.44 in997.0 mb 0.00 in0.0 mm 0.00 in0.0 mm 0.05 in1.3 mm
09:51 AM 53.4°F11.9°C -167.5°F-110.8°C - 1.4 mph N2.3 kmh N 3.4 mph5.5 kmh 29.45 in997.3 mb 0.00 in0.0 mm 0.00 in0.0 mm 0.05 in1.3 mm
10:06 AM 53.1°F11.7°C -167.5°F-110.8°C - 0.6 mph N1.0 kmh N 2.0 mph3.2 kmh 29.44 in997.0 mb 0.00 in0.0 mm 0.00 in0.0 mm 0.05 in1.3 mm
10:21 AM 53.6°F12.0°C -167.4°F-110.8°C - 0.6 mph N1.0 kmh N 3.4 mph5.5 kmh 29.44 in997.0 mb 0.00 in0.0 mm 0.00 in0.0 mm 0.05 in1.3 mm
10:36 AM 53.1°F11.7°C -167.5°F-110.8°C - 0.6 mph N1.0 kmh N 2.8 mph4.5 kmh 29.44 in997.0 mb 0.00 in0.0 mm 0.00 in0.0 mm 0.05 in1.3 mm
10:51 AM 51.6°F10.9°C -167.6°F-110.9°C - 4.8 mph N7.7 kmh N 10.2 mph16.4 kmh 29.44 in997.0 mb 0.00 in0.0 mm 0.00 in0.0 mm 0.05 in1.3 mm
11:06 AM 51.3°F10.7°C -167.7°F-110.9°C - 0.6 mph N1.0 kmh N 2.0 mph3.2 kmh 29.45 in997.3 mb 0.00 in0.0 mm 0.00 in0.0 mm 0.05 in1.3 mm
11:21 AM 50.0°F10.0°C -167.8°F-111.0°C - 2.0 mph N3.2 kmh N 4.8 mph7.7 kmh 29.45 in997.3 mb 0.00 in0.0 mm 0.00 in0.0 mm 0.05 in1.3 mm
11:36 AM 49.5°F9.7°C -167.9°F-111.1°C - Calm Calm 2.0 mph3.2 kmh 29.45 in997.3 mb 0.00 in0.0 mm 0.00 in0.0 mm 0.05 in1.3 mm
11:51 AM 49.3°F9.6°C -167.9°F-111.1°C - Calm Calm 2.0 mph3.2 kmh 29.44 in997.0 mb 0.00 in0.0 mm 0.00 in0.0 mm 0.05 in1.3 mm
12:06 PM 48.7°F9.3°C -167.9°F-111.1°C - Calm Calm 1.4 mph2.3 kmh 29.44 in997.0 mb 0.00 in0.0 mm 0.00 in0.0 mm 0.05 in1.3 mm
12:21 PM 48.9°F9.4°C -167.9°F-111.1°C - 2.8 mph N4.5 kmh N 5.4 mph8.7 kmh 29.44 in997.0 mb 0.00 in0.0 mm 0.00 in0.0 mm 0.05 in1.3 mm
12:36 PM 49.6°F9.8°C -167.8°F-111.0°C - 2.0 mph N3.2 kmh N 4.8 mph7.7 kmh 29.45 in997.3 mb 0.00 in0.0 mm 0.00 in0.0 mm 0.05 in1.3 mm
12:51 PM 49.5°F9.7°C -167.9°F-111.1°C - Calm Calm 1.4 mph2.3 kmh 29.45 in997.3 mb 0.00 in0.0 mm 0.00 in0.0 mm 0.05 in1.3 mm
01:06 PM 49.3°F9.6°C -167.9°F-111.1°C - 1.4 mph N2.3 kmh N 3.4 mph5.5 kmh 29.45 in997.3 mb 0.00 in0.0 mm 0.00 in0.0 mm 0.05 in1.3 mm
01:21 PM 48.7°F9.3°C -167.9°F-111.1°C - Calm Calm 0.6 mph1.0 kmh 29.44 in997.0 mb 0.00 in0.0 mm 0.00 in0.0 mm 0.05 in1.3 mm
01:36 PM 49.3°F9.6°C -167.9°F-111.1°C - Calm Calm 1.4 mph2.3 kmh 29.44 in997.0 mb 0.00 in0.0 mm 0.00 in0.0 mm 0.05 in1.3 mm
01:51 PM 49.5°F9.7°C -167.9°F-111.1°C - Calm Calm 1.4 mph2.3 kmh 29.44 in997.0 mb 0.00 in0.0 mm 0.00 in0.0 mm 0.05 in1.3 mm
02:06 PM 49.3°F9.6°C -167.9°F-111.1°C - Calm Calm 1.4 mph2.3 kmh 29.43 in996.6 mb 0.00 in0.0 mm 0.00 in0.0 mm 0.05 in1.3 mm
02:21 PM 50.5°F10.3°C -167.7°F-110.9°C - Calm Calm 2.0 mph3.2 kmh 29.43 in996.6 mb 0.00 in0.0 mm 0.00 in0.0 mm 0.05 in1.3 mm
02:36 PM 48.9°F9.4°C -167.9°F-111.1°C - 3.4 mph N5.5 kmh N 8.2 mph13.2 kmh 29.43 in996.6 mb 0.00 in0.0 mm 0.00 in0.0 mm 0.05 in1.3 mm
02:51 PM 48.0°F8.9°C -168.0°F-111.1°C - Calm Calm 0.6 mph1.0 kmh 29.43 in996.6 mb 0.00 in0.0 mm 0.00 in0.0 mm 0.05 in1.3 mm
03:06 PM 48.7°F9.3°C -167.9°F-111.1°C - Calm Calm 1.4 mph2.3 kmh 29.43 in996.6 mb 0.00 in0.0 mm 0.00 in0.0 mm 0.05 in1.3 mm
03:21 PM 48.9°F9.4°C -167.9°F-111.1°C - 0.6 mph N1.0 kmh N 2.8 mph4.5 kmh 29.43 in996.6 mb 0.00 in0.0 mm 0.00 in0.0 mm 0.05 in1.3 mm
03:36 PM 49.1°F9.5°C -167.9°F-111.1°C - 2.0 mph N3.2 kmh N 4.8 mph7.7 kmh 29.43 in996.6 mb 0.00 in0.0 mm 0.00 in0.0 mm 0.05 in1.3 mm
03:51 PM 46.9°F8.3°C -168.1°F-111.2°C - Calm Calm 1.4 mph2.3 kmh 29.44 in997.0 mb 0.00 in0.0 mm 0.00 in0.0 mm 0.05 in1.3 mm
04:06 PM 46.0°F7.8°C -168.2°F-111.2°C - Calm Calm 0.6 mph1.0 kmh 29.43 in996.6 mb 0.00 in0.0 mm 0.00 in0.0 mm 0.05 in1.3 mm
04:21 PM 46.9°F8.3°C -168.1°F-111.2°C - 1.4 mph N2.3 kmh N 2.8 mph4.5 kmh 29.43 in996.6 mb 0.00 in0.0 mm 0.00 in0.0 mm 0.05 in1.3 mm
04:36 PM 47.5°F8.6°C -168.1°F-111.2°C - Calm Calm 1.4 mph2.3 kmh 29.42 in996.3 mb 0.00 in0.0 mm 0.00 in0.0 mm 0.05 in1.3 mm
04:51 PM 46.6°F8.1°C -168.1°F-111.2°C - Calm Calm 3.4 mph5.5 kmh 29.43 in996.6 mb 0.00 in0.0 mm 0.00 in0.0 mm 0.05 in1.3 mm
05:06 PM 45.9°F7.7°C -168.2°F-111.2°C - Calm Calm 0.6 mph1.0 kmh 29.42 in996.3 mb 0.00 in0.0 mm 0.00 in0.0 mm 0.05 in1.3 mm
05:21 PM 44.8°F7.1°C -168.3°F-111.3°C - Calm Calm 2.0 mph3.2 kmh 29.42 in996.3 mb 0.00 in0.0 mm 0.00 in0.0 mm 0.05 in1.3 mm
05:36 PM 45.1°F7.3°C -168.3°F-111.3°C - Calm Calm -- 29.42 in996.3 mb 0.00 in0.0 mm 0.00 in0.0 mm 0.05 in1.3 mm
05:51 PM 45.0°F7.2°C -168.3°F-111.3°C - 0.6 mph N1.0 kmh N 6.8 mph10.9 kmh 29.43 in996.6 mb 0.01 in0.3 mm 0.05 in1.3 mm 0.06 in1.5 mm
06:06 PM 44.2°F6.8°C -168.4°F-111.3°C - 2.0 mph N3.2 kmh N 3.4 mph5.5 kmh 29.42 in996.3 mb 0.01 in0.3 mm 0.00 in0.0 mm 0.06 in1.5 mm
06:21 PM 43.2°F6.2°C -168.5°F-111.4°C - Calm Calm 0.6 mph1.0 kmh 29.42 in996.3 mb 0.00 in0.0 mm 0.00 in0.0 mm 0.06 in1.5 mm
06:36 PM 43.2°F6.2°C -168.5°F-111.4°C - Calm Calm 0.6 mph1.0 kmh 29.42 in996.3 mb 0.00 in0.0 mm 0.00 in0.0 mm 0.06 in1.5 mm
06:51 PM 42.6°F5.9°C -168.5°F-111.4°C - Calm Calm 0.6 mph1.0 kmh 29.42 in996.3 mb 0.00 in0.0 mm 0.00 in0.0 mm 0.06 in1.5 mm
07:06 PM 42.4°F5.8°C -168.6°F-111.4°C - Calm Calm 2.0 mph3.2 kmh 29.43 in996.6 mb 0.00 in0.0 mm 0.00 in0.0 mm 0.06 in1.5 mm
07:21 PM 42.3°F5.7°C -168.6°F-111.4°C - Calm Calm 0.6 mph1.0 kmh 29.43 in996.6 mb 0.00 in0.0 mm 0.00 in0.0 mm 0.06 in1.5 mm
07:36 PM 41.9°F5.5°C -168.6°F-111.4°C - Calm Calm 2.0 mph3.2 kmh 29.43 in996.6 mb 0.00 in0.0 mm 0.00 in0.0 mm 0.06 in1.5 mm
07:51 PM 41.7°F5.4°C -168.6°F-111.4°C - Calm Calm 2.0 mph3.2 kmh 29.43 in996.6 mb 0.00 in0.0 mm 0.00 in0.0 mm 0.06 in1.5 mm
08:06 PM 41.5°F5.3°C -168.6°F-111.4°C - Calm Calm 0.6 mph1.0 kmh 29.43 in996.6 mb 0.00 in0.0 mm 0.00 in0.0 mm 0.06 in1.5 mm
08:21 PM 41.2°F5.1°C -168.7°F-111.5°C - Calm Calm 2.0 mph3.2 kmh 29.43 in996.6 mb 0.00 in0.0 mm 0.00 in0.0 mm 0.06 in1.5 mm
08:36 PM 41.0°F5.0°C -168.7°F-111.5°C - Calm Calm 1.4 mph2.3 kmh 29.44 in997.0 mb 0.00 in0.0 mm 0.00 in0.0 mm 0.06 in1.5 mm
08:51 PM 41.0°F5.0°C -168.7°F-111.5°C - Calm Calm 1.4 mph2.3 kmh 29.43 in996.6 mb 0.00 in0.0 mm 0.00 in0.0 mm 0.06 in1.5 mm
09:06 PM 40.5°F4.7°C -168.8°F-111.6°C - Calm Calm 0.6 mph1.0 kmh 29.43 in996.6 mb 0.00 in0.0 mm 0.00 in0.0 mm 0.06 in1.5 mm
09:21 PM 40.3°F4.6°C -168.8°F-111.6°C - Calm Calm 0.6 mph1.0 kmh 29.43 in996.6 mb 0.00 in0.0 mm 0.00 in0.0 mm 0.06 in1.5 mm
09:36 PM 39.9°F4.4°C -168.8°F-111.6°C - Calm Calm -- 29.43 in996.6 mb 0.00 in0.0 mm 0.00 in0.0 mm 0.06 in1.5 mm
09:51 PM 39.7°F4.3°C -168.8°F-111.6°C - Calm Calm 2.8 mph4.5 kmh 29.43 in996.6 mb 0.00 in0.0 mm 0.00 in0.0 mm 0.06 in1.5 mm
10:06 PM 39.6°F4.2°C -168.8°F-111.6°C - Calm Calm 0.6 mph1.0 kmh 29.42 in996.3 mb 0.00 in0.0 mm 0.00 in0.0 mm 0.06 in1.5 mm
10:21 PM 39.2°F4.0°C -168.9°F-111.6°C - Calm Calm 0.6 mph1.0 kmh 29.42 in996.3 mb 0.00 in0.0 mm 0.00 in0.0 mm 0.06 in1.5 mm
10:36 PM 38.8°F3.8°C -168.9°F-111.6°C - Calm Calm 0.6 mph1.0 kmh 29.42 in996.3 mb 0.00 in0.0 mm 0.00 in0.0 mm 0.06 in1.5 mm
10:51 PM 38.5°F3.6°C -169.0°F-111.7°C - Calm Calm 0.6 mph1.0 kmh 29.42 in996.3 mb 0.00 in0.0 mm 0.00 in0.0 mm 0.06 in1.5 mm
11:06 PM 38.3°F3.5°C -169.0°F-111.7°C - Calm Calm 0.6 mph1.0 kmh 29.43 in996.6 mb 0.00 in0.0 mm 0.00 in0.0 mm 0.06 in1.5 mm
11:21 PM 37.9°F3.3°C -169.0°F-111.7°C - Calm Calm 1.4 mph2.3 kmh 29.42 in996.3 mb 0.00 in0.0 mm 0.00 in0.0 mm 0.06 in1.5 mm
11:36 PM 37.8°F3.2°C -169.0°F-111.7°C - Calm Calm 0.6 mph1.0 kmh 29.42 in996.3 mb 0.00 in0.0 mm 0.00 in0.0 mm 0.06 in1.5 mm
11:51 PM 37.6°F3.1°C -169.0°F-111.7°C - Calm Calm 0.6 mph1.0 kmh 29.42 in996.3 mb 0.00 in0.0 mm 0.00 in0.0 mm 0.06 in1.5 mm